createdAt,value
2023-01-27T00:01:53.046Z,2.52
2023-01-27T00:04:21.686Z,2.53
2023-01-27T00:06:50.935Z,2.54
2023-01-27T00:09:20.257Z,2.58
2023-01-27T00:12:08.210Z,2.56
2023-01-27T00:14:37.771Z,2.54
2023-01-27T00:17:07.054Z,2.51
2023-01-27T00:19:36.216Z,2.44
2023-01-27T00:22:24.981Z,2.46
2023-01-27T00:24:55.308Z,2.44
2023-01-27T00:27:24.298Z,2.42
2023-01-27T00:29:54.753Z,2.46
2023-01-27T00:32:43.162Z,2.45
2023-01-27T00:35:12.421Z,2.40
2023-01-27T00:37:44.419Z,2.38
2023-01-27T00:40:16.783Z,2.37
2023-01-27T00:42:45.977Z,2.31
2023-01-27T00:45:33.412Z,2.28
2023-01-27T00:48:02.789Z,2.27
2023-01-27T00:50:31.517Z,2.22
2023-01-27T00:53:02.780Z,2.17
2023-01-27T00:55:32.199Z,2.15
2023-01-27T00:58:02.059Z,2.07
2023-01-27T04:00:28.544Z,2.23
2023-01-27T04:03:15.973Z,2.25
2023-01-27T04:06:03.440Z,2.27
2023-01-27T04:08:32.537Z,2.25
2023-01-27T04:11:24.605Z,2.26
2023-01-27T04:13:53.926Z,2.26
2023-01-27T04:16:29.114Z,2.27
2023-01-27T04:18:58.936Z,2.25
2023-01-27T04:21:28.369Z,2.26
2023-01-27T04:23:56.983Z,2.29
2023-01-27T04:26:26.765Z,2.29
2023-01-27T04:28:56.099Z,2.27
2023-01-27T04:31:25.446Z,2.27
2023-01-27T04:33:54.967Z,2.21
2023-01-27T04:36:23.785Z,2.19
2023-01-27T04:38:53.356Z,2.20
2023-01-27T04:41:22.729Z,2.22
2023-01-27T04:43:52.154Z,2.21
2023-01-27T04:46:21.289Z,2.16
2023-01-27T04:48:50.408Z,2.14
2023-01-27T04:51:18.891Z,2.18
2023-01-27T04:53:48.214Z,2.20
2023-01-27T04:56:27.421Z,2.20
2023-01-27T04:59:01.998Z,2.20
2023-01-27T05:01:31.009Z,2.20
2023-01-27T05:04:00.468Z,2.18
2023-01-27T05:06:30.243Z,2.17
2023-01-27T05:08:59.351Z,2.13
2023-01-27T05:11:28.576Z,2.09
2023-01-27T05:13:57.777Z,2.07
2023-01-27T05:16:27.916Z,2.05
2023-01-27T05:18:56.414Z,2.03
2023-01-27T05:21:31.510Z,2.01
2023-01-27T05:24:02.292Z,1.97
2023-01-27T05:26:31.375Z,1.92
2023-01-27T05:29:00.564Z,1.92
2023-01-27T05:31:34.824Z,1.91
2023-01-27T05:34:04.189Z,1.91
2023-01-27T05:36:33.143Z,1.94
2023-01-27T05:39:02.325Z,1.96
2023-01-27T05:41:32.156Z,1.97
2023-01-27T05:44:01.751Z,2.00
2023-01-27T05:46:34.029Z,2.03
2023-01-27T05:49:07.523Z,2.04
2023-01-27T05:51:40.024Z,2.02
2023-01-27T05:54:09.813Z,2.01
2023-01-27T05:56:39.825Z,2.02
2023-01-27T05:59:09.954Z,2.04
2023-01-27T06:01:38.704Z,2.03
2023-01-27T06:04:07.544Z,2.01
2023-01-27T06:06:36.901Z,2.01
2023-01-27T06:09:06.317Z,2.02
2023-01-27T06:11:35.009Z,2.04
2023-01-27T06:14:03.422Z,2.02
2023-01-27T06:16:31.827Z,1.99
2023-01-27T06:19:02.198Z,1.99
2023-01-27T06:21:30.748Z,2.01
2023-01-27T06:23:59.397Z,2.02
2023-01-27T06:26:28.051Z,2.04
2023-01-27T06:28:58.744Z,2.04
2023-01-27T06:31:28.657Z,2.05
2023-01-27T06:33:58.257Z,2.03
2023-01-27T06:36:27.289Z,2.03
2023-01-27T06:38:55.524Z,2.02
2023-01-27T06:41:25.252Z,2.01
2023-01-27T06:43:54.246Z,2.01
2023-01-27T06:46:23.586Z,2.01
2023-01-27T06:48:52.692Z,2.01
2023-01-27T06:51:21.229Z,2.03
2023-01-27T06:53:49.552Z,2.01
2023-01-27T06:56:17.825Z,2.04
2023-01-27T06:58:47.170Z,2.08
2023-01-27T07:01:15.547Z,2.12
2023-01-27T07:03:45.512Z,2.13
2023-01-27T07:06:16.661Z,2.11
2023-01-27T07:08:47.639Z,2.16
2023-01-27T07:11:17.034Z,2.20
2023-01-27T07:13:46.489Z,2.20
2023-01-27T07:16:15.759Z,2.19
2023-01-27T07:18:44.120Z,2.16
2023-01-27T07:21:13.122Z,2.13
2023-01-27T07:23:41.497Z,2.15
2023-01-27T07:26:23.178Z,2.18
2023-01-27T07:28:53.509Z,2.22
2023-01-27T07:31:22.457Z,2.25
2023-01-27T07:33:52.160Z,2.26
2023-01-27T07:36:20.688Z,2.27
2023-01-27T07:38:50.670Z,2.28
2023-01-27T07:41:19.806Z,2.31
2023-01-27T07:43:49.748Z,2.36
2023-01-27T07:46:21.431Z,2.39
2023-01-27T07:48:50.243Z,2.40
2023-01-27T07:51:19.036Z,2.46
2023-01-27T07:53:47.810Z,2.56
2023-01-27T07:56:16.197Z,2.59
2023-01-27T07:58:44.589Z,2.57
2023-01-27T08:01:13.091Z,2.57
2023-01-27T08:03:42.469Z,2.61
2023-01-27T08:06:12.699Z,2.60
2023-01-27T08:08:42.353Z,2.58
2023-01-27T08:11:14.196Z,2.59
2023-01-27T08:13:43.512Z,2.63
2023-01-27T08:16:14.548Z,2.64
2023-01-27T08:18:43.414Z,2.67
2023-01-27T08:21:13.614Z,2.72
2023-01-27T08:23:42.970Z,2.75
2023-01-27T08:26:11.831Z,2.77
2023-01-27T08:28:41.743Z,2.81
2023-01-27T08:31:13.852Z,2.88
2023-01-27T08:33:44.031Z,2.92
2023-01-27T08:36:16.446Z,2.93
2023-01-27T08:38:45.838Z,2.94
2023-01-27T08:41:25.347Z,2.95
2023-01-27T08:43:57.418Z,2.92
2023-01-27T08:46:26.051Z,2.87
2023-01-27T08:48:54.843Z,2.84
2023-01-27T08:51:23.794Z,2.82
2023-01-27T08:53:52.339Z,2.87
2023-01-27T08:56:20.886Z,2.94
2023-01-27T08:58:52.615Z,2.97
2023-01-27T09:01:21.574Z,2.96
2023-01-27T09:03:50.285Z,2.96
2023-01-27T09:06:19.923Z,2.97
2023-01-27T09:09:12.395Z,3.02
2023-01-27T09:11:44.280Z,3.10
2023-01-27T09:14:12.718Z,3.12
2023-01-27T09:16:41.459Z,3.07
2023-01-27T09:19:09.987Z,2.99
2023-01-27T09:21:38.617Z,2.95
2023-01-27T09:24:07.065Z,2.93
2023-01-27T09:26:35.820Z,2.91
2023-01-27T09:29:05.157Z,2.87
2023-01-27T09:31:34.136Z,2.81
2023-01-27T09:34:02.936Z,2.74
2023-01-27T09:36:34.225Z,2.68
2023-01-27T09:39:07.313Z,2.69
2023-01-27T09:41:59.800Z,2.71
2023-01-27T09:44:47.244Z,2.72
2023-01-27T09:47:38.949Z,2.74
2023-01-27T09:50:14.577Z,2.74
2023-01-27T09:53:12.696Z,2.77
2023-01-27T09:55:53.864Z,2.81
2023-01-27T09:58:38.187Z,2.88
2023-01-27T10:01:23.015Z,2.98
2023-01-27T10:04:37.760Z,3.01
2023-01-27T10:07:25.228Z,3.11
2023-01-27T10:10:31.943Z,3.14
2023-01-27T10:13:12.870Z,3.12
2023-01-27T10:16:05.161Z,3.11
2023-01-27T10:18:40.722Z,3.10
2023-01-27T10:21:36.888Z,3.05
2023-01-27T10:24:24.598Z,2.99
2023-01-27T10:27:09.466Z,2.91
2023-01-27T10:30:04.102Z,2.85
2023-01-27T10:32:45.264Z,2.73
2023-01-27T10:35:42.571Z,2.65
2023-01-27T10:38:38.173Z,2.56
2023-01-27T10:41:37.101Z,2.42
2023-01-27T10:44:29.267Z,2.34
2023-01-27T10:47:24.000Z,2.28
2023-01-27T10:50:00.858Z,2.30
2023-01-27T10:52:42.013Z,2.26
2023-01-27T10:55:26.823Z,2.23
2023-01-27T10:58:12.691Z,2.20
2023-01-27T11:03:59.459Z,2.10
2023-01-27T11:06:41.023Z,2.11
2023-01-27T11:09:26.581Z,2.15
2023-01-27T11:11:59.806Z,2.16
2023-01-27T11:14:50.245Z,2.18
2023-01-27T11:17:35.126Z,2.29
2023-01-27T11:20:21.294Z,2.45
2023-01-27T11:23:14.635Z,2.58
2023-01-27T11:26:05.042Z,2.69
2023-01-27T11:28:49.323Z,2.77
2023-01-27T11:31:49.421Z,2.83
2023-01-27T11:34:52.140Z,2.85
2023-01-27T11:37:52.751Z,2.89
2023-01-27T11:40:36.200Z,2.96
2023-01-27T11:43:05.877Z,2.98
2023-01-27T11:45:36.860Z,2.96
2023-01-27T11:48:11.966Z,2.85
2023-01-27T11:50:42.914Z,2.78
2023-01-27T11:53:12.536Z,2.72
2023-01-27T11:55:46.050Z,2.66
2023-01-27T11:58:25.000Z,2.62
2023-01-27T12:01:04.261Z,2.54
2023-01-27T12:03:53.886Z,2.49
2023-01-27T12:06:37.965Z,2.44
2023-01-27T12:09:06.972Z,2.38
2023-01-27T12:11:35.604Z,2.35
2023-01-27T12:14:05.583Z,2.34
2023-01-27T12:16:49.580Z,2.38
2023-01-27T12:19:27.433Z,2.43
2023-01-27T12:22:04.041Z,2.49
2023-01-27T12:24:41.254Z,2.53
2023-01-27T12:27:25.178Z,2.54
2023-01-27T12:30:19.049Z,2.60
2023-01-27T12:32:49.289Z,2.61
2023-01-27T12:35:25.303Z,2.63
2023-01-27T12:38:07.401Z,2.64
2023-01-27T12:40:42.709Z,2.64
2023-01-27T12:43:20.249Z,2.63
2023-01-27T12:46:09.016Z,2.66
2023-01-27T12:48:48.247Z,2.68
2023-01-27T12:51:24.433Z,2.66
2023-01-27T12:54:16.577Z,2.62
2023-01-27T12:56:46.946Z,2.65
2023-01-27T12:59:18.280Z,2.66
2023-01-27T13:02:18.175Z,2.66
2023-01-27T13:05:00.723Z,2.69
2023-01-27T13:07:34.504Z,2.68
2023-01-27T13:10:04.605Z,2.67
2023-01-27T13:12:57.871Z,2.64
2023-01-27T13:15:31.872Z,2.59
2023-01-27T13:18:11.804Z,2.58
2023-01-27T13:20:43.924Z,2.54
2023-01-27T13:23:19.991Z,2.53
2023-01-27T13:26:09.530Z,2.50
2023-01-27T13:29:06.942Z,2.50
2023-01-27T13:31:50.448Z,2.49
2023-01-27T13:34:43.826Z,2.49
2023-01-27T13:37:33.406Z,2.48
2023-01-27T13:40:26.179Z,2.51
2023-01-27T13:43:36.332Z,2.53
2023-01-27T13:46:18.833Z,2.54
2023-01-27T13:48:51.658Z,2.53
2023-01-27T13:51:24.542Z,2.51
2023-01-27T13:54:02.988Z,2.52
2023-01-27T13:56:57.180Z,2.51
2023-01-27T14:00:05.175Z,2.46
2023-01-27T14:03:12.947Z,2.46
2023-01-27T14:06:09.300Z,2.46
2023-01-27T14:08:53.226Z,2.47
2023-01-27T14:11:28.430Z,2.45
2023-01-27T14:14:22.091Z,2.47
2023-01-27T14:17:15.903Z,2.51
2023-01-27T14:20:18.879Z,2.52
2023-01-27T14:22:54.790Z,2.51
2023-01-27T14:25:45.720Z,2.48
2023-01-27T14:28:59.313Z,2.46
2023-01-27T14:32:06.688Z,2.46
2023-01-27T14:34:36.581Z,2.48
2023-01-27T14:37:20.086Z,2.48
2023-01-27T14:40:15.324Z,2.47
2023-01-27T14:43:43.177Z,2.46
2023-01-27T14:46:59.829Z,2.45
2023-01-27T14:49:46.404Z,2.44
2023-01-27T14:52:21.414Z,2.44
2023-01-27T14:55:21.792Z,2.46
2023-01-27T14:57:57.360Z,2.47
2023-01-27T15:00:44.433Z,2.46
2023-01-27T15:03:33.070Z,2.45
2023-01-27T15:06:17.342Z,2.44
2023-01-27T15:09:12.847Z,2.43
2023-01-27T15:12:09.016Z,2.41
2023-01-27T15:15:01.122Z,2.39
2023-01-27T15:17:45.358Z,2.33
2023-01-27T15:20:43.685Z,2.30
2023-01-27T15:23:34.901Z,2.32
2023-01-27T15:26:09.088Z,2.29
2023-01-27T15:28:41.808Z,2.26
2023-01-27T15:31:20.362Z,2.22
2023-01-27T15:33:55.813Z,2.24
2023-01-27T15:36:28.321Z,2.26
2023-01-27T15:39:18.909Z,2.22
2023-01-27T15:42:05.027Z,2.24
2023-01-27T15:44:57.752Z,2.27
2023-01-27T15:47:31.406Z,2.26
2023-01-27T15:50:12.979Z,2.21
2023-01-27T15:52:47.286Z,2.12
2023-01-27T15:55:27.188Z,2.04
2023-01-27T15:58:06.479Z,2.02
2023-01-27T16:00:39.181Z,2.03
2023-01-27T16:03:22.926Z,2.04
2023-01-27T16:05:58.075Z,2.06
2023-01-27T16:08:33.797Z,2.02
2023-01-27T16:11:24.429Z,1.98
2023-01-27T16:14:17.604Z,1.93
2023-01-27T16:16:54.923Z,1.88
2023-01-27T16:19:30.872Z,1.84
2023-01-27T16:22:13.112Z,1.86
2023-01-27T16:24:47.216Z,1.89
2023-01-27T16:27:28.266Z,1.91
2023-01-27T16:30:24.409Z,1.88
2023-01-27T16:33:04.738Z,1.83
2023-01-27T16:35:41.348Z,1.84
2023-01-27T16:38:37.619Z,1.85
2023-01-27T16:41:25.106Z,1.83
2023-01-27T16:44:23.223Z,1.78
2023-01-27T16:47:11.335Z,1.70
2023-01-27T16:49:46.285Z,1.67
2023-01-27T16:52:40.858Z,1.67
2023-01-27T16:55:24.291Z,1.64
2023-01-27T16:57:54.932Z,1.60
2023-01-27T17:00:29.116Z,1.61
2023-01-27T17:03:02.926Z,1.61
2023-01-27T17:05:32.261Z,1.57
2023-01-27T17:08:26.169Z,1.54
2023-01-27T17:10:58.418Z,1.46
2023-01-27T17:13:28.147Z,1.42
2023-01-27T17:15:58.782Z,1.40
2023-01-27T17:18:31.653Z,1.38
2023-01-27T17:21:20.300Z,1.38
2023-01-27T17:24:08.282Z,1.39
2023-01-27T17:26:37.491Z,1.38
2023-01-27T17:29:06.010Z,1.37
2023-01-27T17:31:39.195Z,1.37
2023-01-27T17:34:18.961Z,1.35
2023-01-27T17:37:07.530Z,1.31
2023-01-27T17:39:39.001Z,1.27
2023-01-27T17:42:08.381Z,1.25
2023-01-27T17:44:36.860Z,1.24
2023-01-27T17:47:07.352Z,1.23
2023-01-27T17:49:39.927Z,1.21
2023-01-27T17:52:11.607Z,1.16
2023-01-27T17:54:47.650Z,1.13
2023-01-27T17:57:24.609Z,1.15
2023-01-27T18:00:23.007Z,1.15
2023-01-27T18:02:57.906Z,1.10
2023-01-27T18:05:31.532Z,1.09
2023-01-27T18:08:01.913Z,1.08
2023-01-27T18:10:42.037Z,1.07
2023-01-27T18:13:19.878Z,1.05
2023-01-27T18:15:58.759Z,1.03
2023-01-27T18:18:34.785Z,1.04
2023-01-27T18:21:15.878Z,1.02
2023-01-27T18:23:48.348Z,0.99
2023-01-27T18:26:22.611Z,1.00
2023-01-27T18:29:05.400Z,0.97
2023-01-27T18:31:57.767Z,0.96
2023-01-27T18:34:33.419Z,0.97
2023-01-27T18:37:09.272Z,0.99
2023-01-27T18:40:26.781Z,1.04
2023-01-27T18:42:59.243Z,1.11
2023-01-27T18:45:28.615Z,1.10
2023-01-27T18:47:57.827Z,1.11
2023-01-27T18:50:27.489Z,1.11
2023-01-27T18:52:56.078Z,1.10
2023-01-27T18:55:27.017Z,1.04
2023-01-27T18:57:57.938Z,0.96
2023-01-27T19:00:31.120Z,0.91
2023-01-27T19:03:01.807Z,0.89
2023-01-27T19:05:36.340Z,0.84
2023-01-27T19:08:05.210Z,0.83
2023-01-27T19:10:34.984Z,0.82
2023-01-27T19:13:04.940Z,0.82
2023-01-27T19:15:37.913Z,0.85
2023-01-27T19:18:15.651Z,0.82
2023-01-27T19:20:44.983Z,0.81
2023-01-27T19:23:15.628Z,0.77
2023-01-27T19:25:47.561Z,0.71
2023-01-27T19:28:35.707Z,0.68
2023-01-27T19:31:06.758Z,0.69
2023-01-27T19:33:39.778Z,0.70
2023-01-27T19:36:27.141Z,0.68
2023-01-27T19:39:00.025Z,0.62
2023-01-27T19:41:28.948Z,0.62
2023-01-27T19:43:58.024Z,0.60
2023-01-27T19:46:27.571Z,0.61
2023-01-27T19:48:56.075Z,0.60
2023-01-27T19:51:24.802Z,0.60
2023-01-27T19:53:54.297Z,0.63
2023-01-27T19:56:24.502Z,0.64
2023-01-27T19:58:54.222Z,0.61
2023-01-27T20:01:25.127Z,0.54
2023-01-27T20:03:55.052Z,0.50
2023-01-27T20:06:26.890Z,0.50
2023-01-27T20:09:00.333Z,0.55
2023-01-27T20:11:43.400Z,0.60
2023-01-27T20:14:15.570Z,0.64
2023-01-27T20:16:44.049Z,0.66
2023-01-27T20:19:15.508Z,0.67
2023-01-27T20:21:46.322Z,0.69
2023-01-27T20:24:19.671Z,0.70
2023-01-27T20:26:49.808Z,0.74
2023-01-27T20:29:18.326Z,0.77
2023-01-27T20:31:46.789Z,0.77
2023-01-27T20:34:17.799Z,0.77
2023-01-27T20:36:46.478Z,0.77
2023-01-27T20:39:16.013Z,0.81
2023-01-27T20:41:44.433Z,0.81
2023-01-27T20:44:12.791Z,0.81
2023-01-27T20:46:44.347Z,0.82
2023-01-27T20:49:12.795Z,0.78
2023-01-27T20:51:41.412Z,0.76
2023-01-27T20:54:11.991Z,0.77
2023-01-27T20:56:40.838Z,0.77
2023-01-27T20:59:09.815Z,0.74
2023-01-27T21:01:38.678Z,0.75
2023-01-27T21:04:07.731Z,0.72
2023-01-27T21:06:36.217Z,0.70
2023-01-27T21:09:05.145Z,0.70
2023-01-27T21:11:34.636Z,0.73
2023-01-27T21:14:03.190Z,0.79
2023-01-27T21:16:32.011Z,0.81
2023-01-27T21:19:02.538Z,0.79
2023-01-27T21:21:31.555Z,0.79
2023-01-27T21:24:00.582Z,0.82
2023-01-27T21:26:29.844Z,0.84
2023-01-27T21:28:59.254Z,0.87
2023-01-27T21:31:30.540Z,0.92
2023-01-27T21:34:00.679Z,0.94
2023-01-27T21:36:32.681Z,0.94
2023-01-27T21:39:02.710Z,0.90
2023-01-27T21:41:51.022Z,0.86
2023-01-27T21:44:42.755Z,0.86
2023-01-27T21:47:17.611Z,0.77
2023-01-27T21:50:04.886Z,0.67
2023-01-27T21:52:42.788Z,0.62
2023-01-27T21:55:20.780Z,0.63
2023-01-27T21:57:52.219Z,0.60
2023-01-27T22:00:25.049Z,0.56
2023-01-27T22:02:58.940Z,0.55
2023-01-27T22:05:29.606Z,0.57
2023-01-27T22:07:59.196Z,0.50
2023-01-27T22:10:29.778Z,0.48
2023-01-27T22:13:01.243Z,0.48
2023-01-27T22:15:31.085Z,0.39
2023-01-27T22:18:01.009Z,0.36
2023-01-27T22:20:29.361Z,0.34
2023-01-27T22:22:57.812Z,0.33
2023-01-27T22:25:27.656Z,0.33
2023-01-27T22:27:56.654Z,0.35
2023-01-27T22:30:25.147Z,0.35
2023-01-27T22:32:53.681Z,0.34
2023-01-27T22:35:24.580Z,0.33
2023-01-27T22:37:53.314Z,0.31
2023-01-27T22:40:22.445Z,0.29
2023-01-27T22:42:51.593Z,0.29
2023-01-27T22:45:23.564Z,0.30
2023-01-27T22:47:52.863Z,0.33
2023-01-27T22:50:21.435Z,0.38
2023-01-27T22:52:51.681Z,0.42
2023-01-27T22:55:20.857Z,0.46
2023-01-27T22:57:50.048Z,0.48
2023-01-27T23:00:19.199Z,0.50
2023-01-27T23:02:49.308Z,0.51
2023-01-27T23:05:18.529Z,0.52
2023-01-27T23:07:48.331Z,0.53
2023-01-27T23:10:17.618Z,0.52
2023-01-27T23:12:46.387Z,0.51
2023-01-27T23:15:15.029Z,0.51
2023-01-27T23:17:43.590Z,0.49
2023-01-27T23:20:16.536Z,0.46
2023-01-27T23:22:48.885Z,0.44
2023-01-27T23:25:18.499Z,0.43
2023-01-27T23:27:47.478Z,0.46
2023-01-27T23:30:17.510Z,0.47
2023-01-27T23:32:47.136Z,0.48
2023-01-27T23:35:16.971Z,0.50
2023-01-27T23:37:46.553Z,0.50
2023-01-27T23:40:15.994Z,0.48
2023-01-27T23:42:45.811Z,0.50
2023-01-27T23:45:16.005Z,0.50
2023-01-27T23:47:45.519Z,0.50
2023-01-27T23:50:15.088Z,0.53
2023-01-27T23:52:44.857Z,0.57
2023-01-27T23:55:14.312Z,0.58
2023-01-27T23:57:43.617Z,0.58
